Time;durP1;ratioP1;P1;durP2;ratioP2;P2;SDS_P1;SDS_P2;PMS_P1;PMS_P2;Temp;Humidity;BMP_temperature;BMP_pressure;BME280_temperature;BME280_humidity;BME280_pressure;Samples;Min_cycle;Max_cycle;Signal;HPM_P1;HPM_P2
2022/12/19 00:02:05;;;;;;;42.55;31.13;;;0.90;92.10;;;;;;4968037;28;20418;-86
2022/12/19 00:04:32;;;;;;;44.05;31.95;;;1.00;92.10;;;;;;4984628;28;20456;-87
2022/12/19 00:06:58;;;;;;;44.83;33.07;;;1.00;92.20;;;;;;4984546;28;20413;-85
2022/12/19 00:09:25;;;;;;;45.28;32.53;;;1.00;92.30;;;;;;4983793;28;20493;-87
2022/12/19 00:11:51;;;;;;;46.13;33.03;;;1.00;92.30;;;;;;4984999;28;20407;-86
2022/12/19 00:14:16;;;;;;;45.80;32.53;;;1.00;92.40;;;;;;4984083;28;20449;-86
2022/12/19 00:16:42;;;;;;;45.77;33.00;;;1.00;92.40;;;;;;4984715;28;21071;-87
2022/12/19 00:19:10;;;;;;;44.83;32.90;;;1.00;92.50;;;;;;4984346;28;20419;-86
2022/12/19 00:21:36;;;;;;;47.58;34.08;;;1.10;92.50;;;;;;4968366;28;20797;-87
2022/12/19 00:24:03;;;;;;;48.20;34.95;;;1.10;92.60;;;;;;4984093;28;20421;-86
2022/12/19 00:26:31;;;;;;;47.45;34.28;;;1.10;92.60;;;;;;4967903;28;20769;-86
2022/12/19 00:28:59;;;;;;;49.72;34.78;;;1.10;92.70;;;;;;4983967;28;20481;-87
2022/12/19 00:31:28;;;;;;;47.25;34.45;;;1.10;92.80;;;;;;4983703;28;20417;-86
2022/12/19 00:33:53;;;;;;;47.35;34.20;;;1.20;92.80;;;;;;4984384;28;20426;-86
2022/12/19 00:36:21;;;;;;;47.50;33.75;;;1.20;92.80;;;;;;4983740;28;20907;-86
2022/12/19 00:38:48;;;;;;;46.78;32.65;;;1.20;92.90;;;;;;4984006;28;20472;-87
2022/12/19 00:41:24;;;;;;;51.30;34.63;;;1.20;93.00;;;;;;4967361;28;20486;-87
2022/12/19 00:43:53;;;;;;;49.28;35.55;;;1.20;93.00;;;;;;4983718;28;20423;-87
2022/12/19 00:46:20;;;;;;;50.47;34.63;;;1.30;93.00;;;;;;4968409;28;20826;-86
2022/12/19 00:48:45;;;;;;;52.72;34.60;;;1.30;93.00;;;;;;4983232;28;20436;-88
2022/12/19 00:51:15;;;;;;;50.20;34.03;;;1.30;93.00;;;;;;4983995;28;20905;-86
2022/12/19 00:53:41;;;;;;;49.25;34.60;;;1.30;93.10;;;;;;4983136;28;20406;-86
2022/12/19 00:56:12;;;;;;;51.25;34.97;;;1.30;93.10;;;;;;4967129;28;20477;-86
2022/12/19 00:58:37;;;;;;;50.08;34.35;;;1.40;93.10;;;;;;4983715;28;20560;-86
2022/12/19 01:01:12;;;;;;;50.03;34.42;;;1.40;93.10;;;;;;4983365;28;20497;-87
2022/12/19 01:03:38;;;;;;;49.63;34.45;;;1.40;93.10;;;;;;4983930;28;20481;-87
2022/12/19 01:06:04;;;;;;;50.17;34.85;;;1.40;93.10;;;;;;4983048;28;20410;-86
2022/12/19 01:08:30;;;;;;;50.33;34.40;;;1.40;93.10;;;;;;4983496;28;20456;-87
2022/12/19 01:10:56;;;;;;;52.05;34.58;;;1.50;93.20;;;;;;4983085;28;20418;-86
2022/12/19 01:13:23;;;;;;;49.00;33.73;;;1.50;93.20;;;;;;4967314;28;20402;-87
2022/12/19 01:15:49;;;;;;;51.08;34.88;;;1.50;93.20;;;;;;4982756;28;20457;-87
2022/12/19 01:18:14;;;;;;;47.70;33.63;;;1.50;93.20;;;;;;4983652;28;20526;-86
2022/12/19 01:20:42;;;;;;;51.22;35.08;;;1.50;93.20;;;;;;4983199;28;20759;-86
2022/12/19 01:23:09;;;;;;;47.42;33.10;;;1.50;93.30;;;;;;4982628;28;20418;-87
2022/12/19 01:25:36;;;;;;;50.65;34.88;;;1.50;93.20;;;;;;4983470;28;20410;-86
2022/12/19 01:28:02;;;;;;;52.30;35.93;;;1.60;93.30;;;;;;4982795;28;20433;-86
2022/12/19 01:30:28;;;;;;;49.20;34.13;;;1.60;93.20;;;;;;4967575;28;20750;-86
2022/12/19 01:32:55;;;;;;;51.58;34.83;;;1.60;93.30;;;;;;4966429;28;20501;-86
2022/12/19 01:35:21;;;;;;;51.63;35.05;;;1.60;93.30;;;;;;4982812;28;20814;-87
2022/12/19 01:37:47;;;;;;;50.57;34.33;;;1.60;93.30;;;;;;4966650;28;20414;-87
2022/12/19 01:40:12;;;;;;;51.37;35.20;;;1.70;93.30;;;;;;4982369;28;20763;-87
2022/12/19 01:42:38;;;;;;;55.45;36.05;;;1.70;93.40;;;;;;4966778;28;20442;-86
2022/12/19 01:45:10;;;;;;;54.80;36.05;;;1.70;93.40;;;;;;4982995;28;20403;-87
2022/12/19 01:47:55;;;;;;;56.00;36.50;;;1.70;93.50;;;;;;4982966;28;20450;-86
2022/12/19 01:50:33;;;;;;;55.75;37.05;;;1.70;93.60;;;;;;4982356;28;20418;-87
2022/12/19 01:53:00;;;;;;;57.97;37.88;;;1.70;93.70;;;;;;4982582;28;20415;-87
2022/12/19 01:55:26;;;;;;;61.80;39.17;;;1.70;93.80;;;;;;4983145;28;20815;-86
2022/12/19 01:57:54;;;;;;;64.20;40.43;;;1.70;93.90;;;;;;4982066;28;20426;-87
2022/12/19 02:00:19;;;;;;;66.47;41.28;;;1.70;94.00;;;;;;4983083;28;20778;-87
2022/12/19 02:02:52;;;;;;;67.95;41.75;;;1.70;94.30;;;;;;4982196;28;21168;-88
2022/12/19 02:05:18;;;;;;;72.85;43.45;;;1.70;94.40;;;;;;4966344;28;20407;-86
2022/12/19 02:07:47;;;;;;;69.85;43.15;;;1.70;94.40;;;;;;4982219;28;20418;-86
2022/12/19 02:10:13;;;;;;;74.60;43.70;;;1.70;94.50;;;;;;4966613;28;20889;-86
2022/12/19 02:12:42;;;;;;;76.97;45.17;;;1.70;94.60;;;;;;4983229;28;20554;-87
2022/12/19 02:15:09;;;;;;;78.30;45.87;;;1.70;94.70;;;;;;4982201;28;20438;-87
2022/12/19 02:17:49;;;;;;;75.32;45.13;;;1.70;94.70;;;;;;4982736;28;21071;-87
2022/12/19 02:20:31;;;;;;;75.32;45.38;;;1.70;94.80;;;;;;4982350;28;20957;-86
2022/12/19 02:22:59;;;;;;;76.97;44.97;;;1.70;94.80;;;;;;4982821;28;20525;-87
2022/12/19 02:25:47;;;;;;;75.97;45.10;;;1.70;94.80;;;;;;4982512;28;20418;-87
2022/12/19 02:28:31;;;;;;;74.63;45.10;;;1.70;94.80;;;;;;4965964;28;20518;-86
2022/12/19 02:31:24;;;;;;;76.72;46.13;;;1.70;94.80;;;;;;4982477;28;20426;-86
2022/12/19 02:34:15;;;;;;;79.85;47.53;;;1.70;94.90;;;;;;4982338;28;20442;-87
2022/12/19 02:36:52;;;;;;;87.82;49.58;;;1.80;95.10;;;;;;4965578;28;20458;-88
2022/12/19 02:39:26;;;;;;;94.63;51.70;;;1.80;95.10;;;;;;4982987;28;21125;-87
2022/12/19 02:41:57;;;;;;;88.05;50.38;;;1.80;95.20;;;;;;4982586;28;20411;-87
2022/12/19 02:44:29;;;;;;;93.53;51.60;;;1.80;95.30;;;;;;4982230;28;20501;-87
2022/12/19 02:46:57;;;;;;;97.53;52.63;;;1.80;95.40;;;;;;4982472;28;20409;-86
2022/12/19 02:49:23;;;;;;;93.25;52.55;;;1.80;95.40;;;;;;4982137;28;20407;-87
2022/12/19 02:51:49;;;;;;;94.15;51.88;;;1.80;95.40;;;;;;4966457;28;20410;-86
2022/12/19 02:54:15;;;;;;;92.40;52.15;;;1.90;95.50;;;;;;4985265;28;20470;-86
2022/12/19 02:57:07;;;;;;;96.28;53.22;;;2.10;95.60;;;;;;4985957;28;20449;-87
2022/12/19 02:59:42;;;;;;;98.70;52.72;;;1.90;95.60;;;;;;4985804;28;20769;-87
2022/12/19 03:02:34;;;;;;;93.90;51.08;;;1.90;95.70;;;;;;4985839;28;20806;-86
2022/12/19 03:05:30;;;;;;;99.20;52.00;;;2.00;95.70;;;;;;4970362;28;20461;-88
2022/12/19 03:08:22;;;;;;;99.05;53.20;;;2.00;95.60;;;;;;4985510;28;20414;-87
2022/12/19 03:10:47;;;;;;;99.45;52.90;;;2.10;95.70;;;;;;4969795;28;20422;-86
2022/12/19 03:13:25;;;;;;;92.63;51.90;;;2.10;95.70;;;;;;4985774;28;20469;-87
2022/12/19 03:15:51;;;;;;;88.03;49.40;;;2.10;95.70;;;;;;4985089;28;20441;-87
2022/12/19 03:18:18;;;;;;;84.87;48.43;;;2.10;95.70;;;;;;4985953;28;20497;-87
2022/12/19 03:21:02;;;;;;;81.32;48.05;;;2.20;95.70;;;;;;4969337;28;20417;-87
2022/12/19 03:23:29;;;;;;;82.38;47.53;;;2.20;95.60;;;;;;4985094;28;20425;-88
2022/12/19 03:26:00;;;;;;;83.40;47.22;;;2.20;95.50;;;;;;4985606;28;20462;-87
2022/12/19 03:28:35;;;;;;;80.82;48.20;;;2.30;95.60;;;;;;4968921;28;20405;-87
2022/12/19 03:31:02;;;;;;;81.40;47.15;;;2.30;95.50;;;;;;4969631;28;20422;-87
2022/12/19 03:33:30;;;;;;;82.10;47.50;;;2.30;95.50;;;;;;4985254;28;20809;-87
2022/12/19 03:36:00;;;;;;;84.18;47.17;;;2.30;95.50;;;;;;4985061;28;20433;-87
2022/12/19 03:38:27;;;;;;;86.88;49.47;;;2.30;95.50;;;;;;4984817;28;20438;-88
2022/12/19 03:40:54;;;;;;;88.10;49.30;;;2.40;95.90;;;;;;4969381;28;20801;-87
2022/12/19 03:43:22;;;;;;;93.40;50.53;;;2.40;95.60;;;;;;4985072;28;20410;-87
2022/12/19 03:45:53;;;;;;;93.75;50.13;;;2.40;95.60;;;;;;4984281;28;20526;-88
2022/12/19 03:48:33;;;;;;;98.93;52.30;;;2.40;95.70;;;;;;4985080;28;20411;-86
2022/12/19 03:51:24;;;;;;;99.63;51.80;;;2.40;95.70;;;;;;4984533;28;20414;-86
2022/12/19 03:54:02;;;;;;;104.30;53.40;;;2.50;95.80;;;;;;4984558;28;20488;-88
2022/12/19 03:56:52;;;;;;;102.70;52.72;;;2.50;95.80;;;;;;4984966;28;20426;-86
2022/12/19 03:59:30;;;;;;;97.00;51.33;;;2.50;95.80;;;;;;4984186;28;20485;-87
2022/12/19 04:01:57;;;;;;;100.35;52.25;;;2.50;95.80;;;;;;4984867;28;20489;-89
2022/12/19 04:04:24;;;;;;;97.30;50.70;;;2.50;95.80;;;;;;4983580;28;20414;-88
2022/12/19 04:06:51;;;;;;;94.07;50.90;;;2.60;95.90;;;;;;4984589;28;20414;-88
2022/12/19 04:09:19;;;;;;;97.20;51.50;;;2.60;95.90;;;;;;4984538;28;20458;-86
2022/12/19 04:11:51;;;;;;;90.07;48.78;;;2.60;95.90;;;;;;4968259;28;20472;-87
2022/12/19 04:14:22;;;;;;;90.85;49.13;;;2.60;95.80;;;;;;4968666;28;20442;-87
2022/12/19 04:17:15;;;;;;;85.18;48.45;;;2.70;95.80;;;;;;4967824;28;20434;-88
2022/12/19 04:20:03;;;;;;;88.45;49.67;;;2.70;96.00;;;;;;4984196;28;20469;-88
2022/12/19 04:22:44;;;;;;;98.35;52.20;;;2.70;95.70;;;;;;4968278;28;20427;-88
2022/12/19 04:25:13;;;;;;;87.80;49.23;;;2.70;95.70;;;;;;4984144;28;20428;-86
2022/12/19 04:27:43;;;;;;;85.28;49.90;;;2.70;95.80;;;;;;4984532;28;20414;-87
2022/12/19 04:30:14;;;;;;;88.65;50.28;;;2.80;95.70;;;;;;4983745;28;20422;-88
2022/12/19 04:32:41;;;;;;;90.28;50.33;;;2.80;95.60;;;;;;4967921;28;20434;-86
2022/12/19 04:35:08;;;;;;;84.05;49.03;;;2.80;95.70;;;;;;4968091;28;20427;-86
2022/12/19 04:37:34;;;;;;;94.35;50.70;;;2.80;95.70;;;;;;4967666;28;20460;-88
2022/12/19 04:39:59;;;;;;;93.22;49.63;;;2.80;95.60;;;;;;4984734;28;21188;-89
2022/12/19 04:42:25;;;;;;;104.28;52.60;;;2.80;95.70;;;;;;4983996;28;20411;-89
2022/12/19 04:44:51;;;;;;;104.33;54.20;;;2.80;95.70;;;;;;4968219;28;20782;-88
2022/12/19 04:47:16;;;;;;;92.87;50.03;;;2.80;95.80;;;;;;4967587;28;20494;-85
2022/12/19 04:49:42;;;;;;;93.50;51.20;;;2.80;95.80;;;;;;4968272;28;20890;-84
2022/12/19 04:52:08;;;;;;;90.18;49.70;;;2.80;95.80;;;;;;4967521;28;20413;-84
2022/12/19 04:54:33;;;;;;;88.80;49.70;;;2.90;95.80;;;;;;4967350;28;20789;-85
2022/12/19 04:56:59;;;;;;;93.53;49.33;;;2.90;95.90;;;;;;4984063;28;20496;-85
2022/12/19 04:59:25;;;;;;;110.38;53.33;;;2.90;95.80;;;;;;4967032;28;20411;-85
2022/12/19 05:01:50;;;;;;;102.78;52.80;;;2.90;95.80;;;;;;4984215;28;20422;-85
2022/12/19 05:04:16;;;;;;;106.97;54.53;;;3.00;95.90;;;;;;4983569;28;20830;-85
2022/12/19 05:06:41;;;;;;;99.87;49.40;;;3.00;96.00;;;;;;4967614;28;20402;-85
2022/12/19 05:09:09;;;;;;;102.85;52.97;;;3.00;96.00;;;;;;4983580;28;20461;-86
2022/12/19 05:11:35;;;;;;;114.60;56.13;;;3.00;96.00;;;;;;4983962;28;20756;-85
2022/12/19 05:14:01;;;;;;;95.97;49.85;;;3.10;96.20;;;;;;4983514;28;20461;-86
2022/12/19 05:16:27;;;;;;;107.30;52.97;;;3.10;96.20;;;;;;4982767;28;20802;-86
2022/12/19 05:18:54;;;;;;;100.20;51.17;;;3.10;96.50;;;;;;4983776;28;20409;-84
2022/12/19 05:21:20;;;;;;;107.33;51.53;;;3.20;96.40;;;;;;4983345;28;20502;-86
2022/12/19 05:23:46;;;;;;;113.75;54.45;;;3.20;96.10;;;;;;4983778;28;20425;-85
2022/12/19 05:26:12;;;;;;;100.13;50.70;;;3.20;96.20;;;;;;4966904;28;20489;-84
2022/12/19 05:28:38;;;;;;;100.85;50.40;;;3.20;96.20;;;;;;4983585;28;20472;-85
2022/12/19 05:31:24;;;;;;;102.03;50.67;;;3.20;96.20;;;;;;4982794;28;20415;-85
2022/12/19 05:33:50;;;;;;;97.60;49.53;;;3.30;96.20;;;;;;4966964;28;20414;-86
2022/12/19 05:36:17;;;;;;;106.30;51.85;;;3.30;96.20;;;;;;4983712;28;20774;-86
2022/12/19 05:38:42;;;;;;;95.50;49.25;;;3.30;96.20;;;;;;4966686;28;20415;-86
2022/12/19 05:41:09;;;;;;;99.97;49.15;;;3.30;96.20;;;;;;4967541;28;20407;-85
2022/12/19 05:43:35;;;;;;;105.25;50.17;;;3.30;96.20;;;;;;4966882;28;20529;-86
2022/12/19 05:46:02;;;;;;;89.85;47.78;;;3.40;96.30;;;;;;4983319;28;20489;-87
2022/12/19 05:48:28;;;;;;;88.13;45.88;;;3.40;96.30;;;;;;4966848;28;20407;-86
2022/12/19 05:50:53;;;;;;;87.03;45.57;;;3.40;96.20;;;;;;4982989;28;20493;-86
2022/12/19 05:53:19;;;;;;;86.47;46.07;;;3.50;96.30;;;;;;4967133;28;20821;-86
2022/12/19 05:55:44;;;;;;;79.47;43.55;;;3.50;96.30;;;;;;4966407;28;20432;-86
2022/12/19 05:58:10;;;;;;;86.57;45.40;;;3.60;96.30;;;;;;4984125;28;20410;-87
2022/12/19 06:00:36;;;;;;;75.20;42.10;;;3.60;96.30;;;;;;4983034;28;20585;-87
2022/12/19 06:03:02;;;;;;;77.60;42.70;;;3.60;96.20;;;;;;4983672;28;20414;-87
2022/12/19 06:05:27;;;;;;;74.85;41.03;;;3.60;96.20;;;;;;4967057;28;20415;-88
2022/12/19 06:07:53;;;;;;;72.55;40.97;;;3.70;96.40;;;;;;4967570;28;20414;-86
2022/12/19 06:10:19;;;;;;;73.22;41.20;;;3.90;96.30;;;;;;4983765;28;20501;-87
2022/12/19 06:12:45;;;;;;;69.63;39.13;;;3.80;96.30;;;;;;4983525;28;20789;-87
2022/12/19 06:15:11;;;;;;;73.57;40.13;;;3.80;96.20;;;;;;4984141;28;20441;-88
2022/12/19 06:17:36;;;;;;;72.63;40.35;;;3.90;96.20;;;;;;4983242;28;21182;-87
2022/12/19 06:20:02;;;;;;;65.87;38.43;;;3.80;96.20;;;;;;4974574;28;20432;-89
2022/12/19 06:22:28;;;;;;;71.10;38.28;;;3.80;96.30;;;;;;4987696;28;20413;-87
2022/12/19 06:24:53;;;;;;;63.33;36.22;;;3.80;96.20;;;;;;4986846;28;20470;-90
2022/12/19 06:27:19;;;;;;;67.68;38.13;;;3.90;96.30;;;;;;4987511;28;20460;-88
2022/12/19 06:29:45;;;;;;;63.07;36.30;;;4.00;96.30;;;;;;4996806;28;21061;-88
2022/12/19 06:32:10;;;;;;;67.85;37.22;;;4.00;96.30;;;;;;5005965;28;20925;-88
2022/12/19 06:34:36;;;;;;;67.72;37.20;;;4.00;96.30;;;;;;4971275;28;20445;-88
2022/12/19 06:37:02;;;;;;;61.70;36.67;;;4.00;96.30;;;;;;4988299;28;20422;-89
2022/12/19 06:39:27;;;;;;;55.93;33.27;;;4.00;96.30;;;;;;4987696;28;20510;-87
2022/12/19 06:44:37;;;;;;;58.33;33.90;;;4.10;96.30;;;;;;4988026;28;20410;-90
2022/12/19 06:47:03;;;;;;;61.42;34.42;;;4.10;96.30;;;;;;4971988;28;21003;-90
2022/12/19 06:49:28;;;;;;;61.17;34.33;;;4.20;96.30;;;;;;4988303;28;20418;-89
2022/12/19 06:51:54;;;;;;;56.87;31.90;;;4.20;96.30;;;;;;4987658;28;20407;-87
2022/12/19 06:54:20;;;;;;;55.60;32.85;;;4.20;96.30;;;;;;5027169;28;20939;-89
2022/12/19 06:56:45;;;;;;;52.63;31.00;;;4.60;96.40;;;;;;5026452;28;20486;-89
2022/12/19 06:59:12;;;;;;;63.33;33.57;;;4.30;96.40;;;;;;5027085;28;20438;-90
2022/12/19 07:02:00;;;;;;;52.65;30.40;;;4.40;96.40;;;;;;5026588;28;20399;-88
2022/12/19 07:04:42;;;;;;;57.25;30.80;;;4.40;96.50;;;;;;5027015;28;20465;-88
2022/12/19 07:07:07;;;;;;;49.10;29.75;;;4.40;96.40;;;;;;5044098;28;20758;-89
2022/12/19 07:09:34;;;;;;;48.90;29.38;;;4.40;96.40;;;;;;5020076;28;20412;-89
2022/12/19 07:12:00;;;;;;;54.10;30.55;;;4.50;96.40;;;;;;4991539;28;20405;-89
2022/12/19 07:14:26;;;;;;;50.75;30.65;;;4.50;96.40;;;;;;5007460;28;20943;-87
2022/12/19 07:16:53;;;;;;;50.90;30.23;;;4.50;96.40;;;;;;5007343;28;20412;-90
2022/12/19 07:19:20;;;;;;;46.42;27.95;;;4.60;96.50;;;;;;5006971;28;20432;-88
2022/12/19 07:21:45;;;;;;;50.45;29.77;;;4.60;96.40;;;;;;5007172;28;20437;-90
2022/12/19 07:24:13;;;;;;;53.10;30.52;;;4.60;96.40;;;;;;5007582;28;20444;-87
2022/12/19 07:26:40;;;;;;;50.05;29.27;;;4.90;96.70;;;;;;5006966;28;20511;-90
2022/12/19 07:29:07;;;;;;;44.63;27.40;;;4.70;96.70;;;;;;5007771;28;20412;-89
2022/12/19 07:31:33;;;;;;;41.90;27.23;;;4.80;96.60;;;;;;5006943;28;20405;-89
2022/12/19 07:33:59;;;;;;;48.13;28.77;;;4.80;96.60;;;;;;5007246;28;20460;-88
2022/12/19 07:36:24;;;;;;;55.57;30.70;;;4.80;96.60;;;;;;5006921;28;20413;-89
2022/12/19 07:38:50;;;;;;;50.27;29.37;;;4.90;96.60;;;;;;5005355;28;20412;-88
2022/12/19 07:41:16;;;;;;;53.78;30.35;;;4.90;96.50;;;;;;5006329;28;20413;-89
2022/12/19 07:43:42;;;;;;;54.30;30.08;;;5.00;96.60;;;;;;5005682;28;20416;-90
2022/12/19 07:46:07;;;;;;;50.38;29.42;;;5.00;96.90;;;;;;5006854;28;20405;-88
2022/12/19 07:48:33;;;;;;;55.87;30.10;;;5.00;96.60;;;;;;5005783;28;20416;-87
2022/12/19 07:50:58;;;;;;;52.92;29.83;;;5.10;96.60;;;;;;4990170;28;20417;-87
2022/12/19 07:53:24;;;;;;;42.13;27.17;;;5.10;96.60;;;;;;4989492;28;20934;-86
2022/12/19 07:55:51;;;;;;;50.00;29.80;;;5.10;96.70;;;;;;5005963;28;20506;-88
2022/12/19 07:58:16;;;;;;;45.15;27.17;;;5.20;96.80;;;;;;5005946;28;20409;-88
2022/12/19 08:00:42;;;;;;;44.47;27.77;;;5.20;96.80;;;;;;5006241;28;20466;-89
2022/12/19 08:03:08;;;;;;;44.13;26.73;;;5.30;96.80;;;;;;5005916;28;20413;-87
2022/12/19 08:05:33;;;;;;;44.35;27.48;;;5.40;96.80;;;;;;5005332;28;20416;-88
2022/12/19 08:07:59;;;;;;;40.85;25.83;;;5.40;96.80;;;;;;5006912;28;20405;-87
2022/12/19 08:10:25;;;;;;;41.78;26.98;;;5.40;96.70;;;;;;5005599;28;20425;-89
2022/12/19 08:12:50;;;;;;;40.73;26.07;;;5.50;96.70;;;;;;5006656;28;20405;-89
2022/12/19 08:15:17;;;;;;;38.20;24.47;;;5.50;96.80;;;;;;5005529;28;20934;-89
2022/12/19 08:17:42;;;;;;;45.17;27.10;;;5.60;96.70;;;;;;5005781;28;20413;-89
2022/12/19 08:20:12;;;;;;;35.80;24.08;;;5.60;96.70;;;;;;5005949;28;20416;-89
2022/12/19 08:22:38;;;;;;;47.50;27.02;;;5.60;96.70;;;;;;5005722;28;20416;-89
2022/12/19 08:25:05;;;;;;;41.63;25.90;;;5.70;96.80;;;;;;4989787;28;20408;-88
2022/12/19 08:27:30;;;;;;;41.90;25.27;;;5.80;96.80;;;;;;5005543;28;20416;-88
2022/12/19 08:29:56;;;;;;;35.73;23.57;;;5.90;97.10;;;;;;5006151;28;20405;-89
2022/12/19 08:32:22;;;;;;;37.25;24.35;;;5.90;96.80;;;;;;5005531;28;20409;-89
2022/12/19 08:34:48;;;;;;;41.50;25.67;;;5.90;96.70;;;;;;5005056;28;20440;-89
2022/12/19 08:37:14;;;;;;;38.08;25.15;;;6.00;96.80;;;;;;4988781;28;20405;-89
2022/12/19 08:39:39;;;;;;;36.35;24.33;;;6.00;96.60;;;;;;5005333;28;21017;-89
2022/12/19 08:42:05;;;;;;;35.57;24.97;;;6.00;96.80;;;;;;5005522;28;20924;-88
2022/12/19 08:44:31;;;;;;;32.40;23.63;;;6.10;96.70;;;;;;4988915;28;20451;-87
2022/12/19 08:46:56;;;;;;;34.05;24.55;;;6.10;96.60;;;;;;5005782;28;20417;-87
2022/12/19 08:49:22;;;;;;;38.43;25.77;;;6.20;96.70;;;;;;5005115;28;20500;-88
2022/12/19 08:51:47;;;;;;;35.03;25.10;;;6.20;97.00;;;;;;5005223;28;20397;-88
2022/12/19 08:54:13;;;;;;;31.80;24.30;;;6.30;97.00;;;;;;4988270;28;20432;-88
2022/12/19 08:56:39;;;;;;;29.77;22.80;;;6.30;96.80;;;;;;5005254;28;20416;-88
2022/12/19 08:59:05;;;;;;;32.97;24.30;;;6.40;96.70;;;;;;5004423;28;20401;-88
2022/12/19 09:01:30;;;;;;;30.33;23.80;;;6.40;96.70;;;;;;5004770;28;20492;-89
2022/12/19 09:03:59;;;;;;;31.42;24.17;;;6.50;96.80;;;;;;5005271;28;20466;-88
2022/12/19 09:06:25;;;;;;;31.75;24.05;;;6.60;97.00;;;;;;5005070;28;20416;-88
2022/12/19 09:08:51;;;;;;;32.75;24.73;;;6.60;96.60;;;;;;5005275;28;20467;-86
2022/12/19 09:11:19;;;;;;;33.28;25.77;;;6.70;96.60;;;;;;4988976;28;20496;-88
2022/12/19 09:13:46;;;;;;;31.67;25.13;;;6.70;96.60;;;;;;5004487;28;20413;-89
2022/12/19 09:16:17;;;;;;;35.17;27.10;;;6.80;96.60;;;;;;5004652;28;20450;-87
2022/12/19 09:18:47;;;;;;;33.83;27.70;;;6.80;96.50;;;;;;5003827;28;20412;-88
2022/12/19 09:21:13;;;;;;;34.30;27.20;;;6.90;96.60;;;;;;5005356;28;20908;-89
2022/12/19 09:23:40;;;;;;;32.03;26.05;;;6.90;96.50;;;;;;5004479;28;20803;-87
2022/12/19 09:26:11;;;;;;;34.08;27.77;;;6.90;96.40;;;;;;5004173;28;20416;-89
2022/12/19 09:28:38;;;;;;;35.85;28.20;;;6.90;96.40;;;;;;5004288;28;20409;-88
2022/12/19 09:31:09;;;;;;;33.92;27.38;;;7.00;96.40;;;;;;4998622;28;20468;-89
2022/12/19 09:33:35;;;;;;;37.17;29.30;;;7.00;96.30;;;;;;4993059;28;20402;-90
2022/12/19 09:36:02;;;;;;;35.47;28.25;;;7.10;96.30;;;;;;5026602;28;20840;-88
2022/12/19 09:38:29;;;;;;;38.20;29.40;;;7.10;96.40;;;;;;4986981;28;20809;-91
2022/12/19 09:41:05;;;;;;;39.58;30.48;;;7.10;96.40;;;;;;4991048;28;20437;-89
2022/12/19 09:43:49;;;;;;;38.63;30.00;;;7.20;96.40;;;;;;5038395;28;20417;-89
2022/12/19 09:46:23;;;;;;;33.80;28.67;;;7.20;96.40;;;;;;5036490;28;20432;-89
2022/12/19 09:48:53;;;;;;;35.28;28.67;;;7.20;96.40;;;;;;4998763;28;20408;-90
2022/12/19 09:51:59;;;;;;;37.80;30.85;;;7.30;96.40;;;;;;5020581;28;20863;-88
2022/12/19 09:54:40;;;;;;;34.20;29.30;;;7.40;96.40;;;;;;5001832;28;20943;-88
2022/12/19 09:57:23;;;;;;;37.33;31.25;;;7.40;96.30;;;;;;5010208;28;20424;-89
2022/12/19 10:00:05;;;;;;;29.40;26.10;;;7.50;96.40;;;;;;5020515;28;20937;-89
2022/12/19 10:02:46;;;;;;;30.42;26.60;;;7.40;96.50;;;;;;5005792;28;20428;-88
2022/12/19 10:05:23;;;;;;;34.15;28.48;;;7.50;96.20;;;;;;5011116;28;20416;-89
2022/12/19 10:07:49;;;;;;;31.95;27.77;;;7.60;96.20;;;;;;5010716;28;20412;-89
2022/12/19 10:10:20;;;;;;;30.90;26.65;;;7.60;96.20;;;;;;5016009;28;20405;-90
2022/12/19 10:13:20;;;;;;;31.02;26.63;;;7.60;96.10;;;;;;5010020;28;20405;-87
2022/12/19 10:16:24;;;;;;;33.38;28.35;;;7.70;96.20;;;;;;5003359;28;20445;-90
2022/12/19 10:19:08;;;;;;;30.43;26.50;;;7.70;96.10;;;;;;4993873;28;20424;-89
2022/12/19 10:21:41;;;;;;;29.80;25.08;;;7.80;96.10;;;;;;5011144;28;20512;-90
2022/12/19 10:24:43;;;;;;;28.77;24.35;;;7.80;96.00;;;;;;5008987;28;20429;-91
2022/12/19 10:27:25;;;;;;;27.67;24.77;;;7.90;96.00;;;;;;4981971;28;20470;-87
2022/12/19 10:30:02;;;;;;;28.48;25.38;;;7.90;96.00;;;;;;5015431;28;20421;-89
2022/12/19 10:32:35;;;;;;;24.73;22.07;;;8.00;96.00;;;;;;5032086;28;20777;-89
2022/12/19 10:35:04;;;;;;;27.58;23.88;;;8.00;95.90;;;;;;5032275;28;20460;-88
2022/12/19 10:37:39;;;;;;;25.30;22.60;;;8.00;95.80;;;;;;4998169;28;20582;-88
2022/12/19 10:40:11;;;;;;;25.85;23.10;;;8.00;95.80;;;;;;4973818;28;20410;-89
2022/12/19 10:42:45;;;;;;;26.55;23.67;;;8.10;95.80;;;;;;4973582;28;20446;-86
2022/12/19 10:45:17;;;;;;;25.13;22.50;;;8.10;95.70;;;;;;4990990;28;20456;-87
2022/12/19 10:47:46;;;;;;;25.33;22.10;;;8.10;95.70;;;;;;4974338;28;20462;-86
2022/12/19 10:50:16;;;;;;;24.45;21.85;;;8.10;95.80;;;;;;4990444;28;20832;-85
2022/12/19 10:53:04;;;;;;;26.27;23.48;;;8.20;95.80;;;;;;4974182;28;20406;-89
2022/12/19 10:55:50;;;;;;;24.02;21.52;;;8.20;95.70;;;;;;4989876;28;20797;-87
2022/12/19 10:58:26;;;;;;;23.77;21.20;;;8.20;95.60;;;;;;4973818;28;20940;-88
2022/12/19 11:00:57;;;;;;;25.90;23.07;;;8.20;95.60;;;;;;4974193;28;20415;-89
2022/12/19 11:03:23;;;;;;;23.55;21.15;;;8.30;95.60;;;;;;4990077;28;20769;-90
2022/12/19 11:05:54;;;;;;;24.50;21.88;;;8.30;95.60;;;;;;4974078;28;20493;-88
2022/12/19 11:08:36;;;;;;;22.58;20.27;;;8.30;95.60;;;;;;4974973;28;20406;-88
2022/12/19 11:11:05;;;;;;;22.33;20.00;;;8.40;95.50;;;;;;5026338;28;20412;-86
2022/12/19 11:13:45;;;;;;;21.30;19.10;;;8.40;95.50;;;;;;5042540;28;20421;-88
2022/12/19 11:16:13;;;;;;;18.88;16.95;;;8.40;95.50;;;;;;5039814;28;20548;-88
2022/12/19 11:18:44;;;;;;;19.13;17.23;;;8.40;95.40;;;;;;5023676;28;20476;-90
2022/12/19 11:21:29;;;;;;;18.80;16.83;;;8.50;95.40;;;;;;5040350;28;20449;-89
2022/12/19 11:24:04;;;;;;;20.17;18.15;;;8.50;95.40;;;;;;5023519;28;20420;-89
2022/12/19 11:26:39;;;;;;;19.17;17.25;;;8.50;95.30;;;;;;5023428;28;20420;-87
2022/12/19 11:29:26;;;;;;;17.43;15.63;;;8.50;95.30;;;;;;5039671;28;20420;-90
2022/12/19 11:31:58;;;;;;;18.50;16.70;;;8.60;95.60;;;;;;5040540;28;20761;-90
2022/12/19 11:34:29;;;;;;;18.40;16.35;;;8.60;95.20;;;;;;5023526;28;20578;-91
2022/12/19 11:37:20;;;;;;;16.93;15.23;;;8.60;95.20;;;;;;5023178;28;20403;-91
2022/12/19 11:39:51;;;;;;;15.73;14.13;;;8.60;95.10;;;;;;5040316;28;20463;-88
2022/12/19 11:42:34;;;;;;;17.57;15.77;;;8.60;95.10;;;;;;5039786;28;20423;-89
2022/12/19 11:45:05;;;;;;;15.35;13.85;;;8.60;95.20;;;;;;5023130;28;20537;-90
2022/12/19 11:47:55;;;;;;;16.40;14.77;;;8.70;95.10;;;;;;5039373;28;20501;-87
2022/12/19 11:50:32;;;;;;;15.75;14.25;;;8.70;95.10;;;;;;5022429;28;20503;-89
2022/12/19 11:53:11;;;;;;;15.03;13.63;;;8.70;95.00;;;;;;5039456;28;20428;-88
2022/12/19 11:55:50;;;;;;;16.25;14.55;;;8.70;95.00;;;;;;5038979;28;20444;-90
2022/12/19 11:58:15;;;;;;;16.70;15.00;;;8.70;95.00;;;;;;5039392;28;20465;-90
2022/12/19 12:00:57;;;;;;;16.03;14.33;;;8.70;95.00;;;;;;5038809;28;20496;-88
2022/12/19 12:03:53;;;;;;;15.63;14.02;;;8.80;95.00;;;;;;5038323;28;20421;-89
2022/12/19 12:06:18;;;;;;;15.00;13.60;;;8.80;95.00;;;;;;5039468;28;20749;-89
2022/12/19 12:08:47;;;;;;;16.27;14.57;;;8.80;94.90;;;;;;5038689;28;20408;-87
2022/12/19 12:11:18;;;;;;;15.40;13.25;;;8.80;94.90;;;;;;5038749;28;20787;-89
2022/12/19 12:14:12;;;;;;;14.73;13.30;;;8.80;94.90;;;;;;5038527;28;20417;-88
2022/12/19 12:17:01;;;;;;;15.38;13.68;;;8.80;94.90;;;;;;5021910;28;20467;-88
2022/12/19 12:19:35;;;;;;;13.55;12.15;;;8.80;94.90;;;;;;4978652;28;20421;-87
2022/12/19 12:22:04;;;;;;;13.68;12.27;;;8.80;94.80;;;;;;5038699;28;20923;-88
2022/12/19 12:24:58;;;;;;;14.50;13.05;;;8.80;94.70;;;;;;5038390;28;20417;-87
2022/12/19 12:27:45;;;;;;;12.02;10.70;;;8.90;94.80;;;;;;5038879;28;20742;-90
2022/12/19 12:30:17;;;;;;;14.48;12.98;;;8.90;94.70;;;;;;5038675;28;20420;-88
2022/12/19 12:33:06;;;;;;;13.93;12.50;;;8.90;94.60;;;;;;5021385;28;20417;-89
2022/12/19 12:35:40;;;;;;;14.00;12.57;;;8.90;94.60;;;;;;5021257;28;20839;-88
2022/12/19 12:38:15;;;;;;;13.00;11.70;;;8.90;94.60;;;;;;5021691;28;20765;-88
2022/12/19 12:41:06;;;;;;;13.82;12.50;;;8.90;94.60;;;;;;5038607;28;20447;-88
2022/12/19 12:44:10;;;;;;;12.30;11.10;;;8.90;94.60;;;;;;5037926;28;20405;-87
2022/12/19 12:46:48;;;;;;;12.73;11.52;;;8.90;94.50;;;;;;5000797;28;20519;-88
2022/12/19 12:49:37;;;;;;;12.00;10.70;;;8.90;94.50;;;;;;5022056;28;20432;-89
2022/12/19 12:52:07;;;;;;;12.27;11.07;;;8.90;94.40;;;;;;5037769;28;20412;-88
2022/12/19 12:54:36;;;;;;;12.57;10.45;;;9.00;94.40;;;;;;5038050;28;20429;-88
2022/12/19 12:57:02;;;;;;;12.75;10.90;;;9.00;94.40;;;;;;5032462;28;20830;-89
2022/12/19 12:59:30;;;;;;;11.27;10.18;;;9.00;94.40;;;;;;4967605;28;21003;-89